Time;durP1;ratioP1;P1;durP2;ratioP2;P2;SDS_P1;SDS_P2;PMS_P1;PMS_P2;Temp;Humidity;BMP_temperature;BMP_pressure;BME280_temperature;BME280_humidity;BME280_pressure;Samples;Min_cycle;Max_cycle;Signal;HPM_P1;HPM_P2
2022/07/02 00:02:44;;;;;;;4.53;2.70;;;15.80;99.90;;;;;;9181094;19;20052;-71
2022/07/02 00:05:53;;;;;;;5.35;3.35;;;15.50;99.90;;;;;;9185549;19;20046;-72
2022/07/02 00:08:58;;;;;;;5.22;2.63;;;15.40;99.90;;;;;;9180163;19;20336;-72
2022/07/02 00:12:05;;;;;;;5.25;2.70;;;15.30;99.90;;;;;;9180107;19;20006;-72
2022/07/02 00:15:10;;;;;;;5.13;2.97;;;15.20;99.90;;;;;;9179807;19;20016;-71
2022/07/02 00:18:15;;;;;;;4.32;3.00;;;15.00;99.90;;;;;;9178232;19;20011;-71
2022/07/02 00:21:20;;;;;;;6.20;3.20;;;15.20;99.90;;;;;;9180725;19;20514;-72
2022/07/02 00:24:25;;;;;;;5.30;2.90;;;14.90;99.90;;;;;;9178186;19;20010;-72
2022/07/02 00:27:33;;;;;;;3.85;2.95;;;14.90;99.90;;;;;;9179403;19;20015;-71
2022/07/02 00:30:37;;;;;;;6.70;3.35;;;14.80;99.90;;;;;;9179475;19;20014;-72
2022/07/02 00:33:43;;;;;;;6.40;3.10;;;15.10;99.90;;;;;;9179829;19;20018;-71
2022/07/02 00:36:47;;;;;;;4.70;3.50;;;15.10;99.90;;;;;;9179633;19;20014;-72
2022/07/02 00:39:51;;;;;;;4.78;3.28;;;14.80;99.90;;;;;;9181072;19;20033;-71
2022/07/02 00:42:58;;;;;;;5.30;3.58;;;14.60;99.90;;;;;;9179067;19;20368;-71
2022/07/02 00:46:03;;;;;;;5.60;3.35;;;14.70;99.90;;;;;;9177444;19;20047;-71
2022/07/02 00:49:07;;;;;;;5.18;3.50;;;14.10;99.90;;;;;;9182694;19;20367;-71
2022/07/02 00:52:11;;;;;;;4.63;3.58;;;14.30;99.90;;;;;;9178279;19;20502;-72
2022/07/02 00:55:15;;;;;;;6.60;3.40;;;14.40;99.90;;;;;;9179154;19;20494;-72
2022/07/02 00:58:22;;;;;;;5.68;3.80;;;14.40;99.90;;;;;;9177786;19;20010;-72
2022/07/02 01:01:26;;;;;;;5.28;3.40;;;14.30;99.90;;;;;;9178693;19;20025;-72
2022/07/02 01:04:32;;;;;;;6.03;3.75;;;14.20;99.90;;;;;;9183532;19;20041;-72
2022/07/02 01:07:38;;;;;;;5.47;3.38;;;14.20;99.90;;;;;;9177876;19;20472;-72
2022/07/02 01:10:43;;;;;;;8.43;3.40;;;14.20;99.90;;;;;;9177523;19;20074;-71
2022/07/02 01:13:50;;;;;;;5.13;3.92;;;14.00;99.90;;;;;;9182053;19;20019;-72
2022/07/02 01:16:54;;;;;;;5.35;3.30;;;14.00;99.90;;;;;;9177313;19;20110;-71
2022/07/02 01:19:58;;;;;;;8.70;3.75;;;;;;;;;;9176024;19;20464;-72
2022/07/02 01:23:06;;;;;;;4.05;3.63;;;14.10;99.90;;;;;;9176570;19;20010;-72
2022/07/02 01:26:11;;;;;;;5.85;3.80;;;14.00;99.90;;;;;;9177066;19;20048;-72
2022/07/02 01:29:15;;;;;;;6.85;3.63;;;14.00;99.90;;;;;;9182294;19;20098;-72
2022/07/02 01:32:19;;;;;;;6.38;3.53;;;13.90;99.90;;;;;;9186910;19;20417;-72
2022/07/02 01:35:23;;;;;;;6.68;3.90;;;14.00;99.90;;;;;;9186078;19;20032;-71
2022/07/02 01:38:29;;;;;;;8.40;3.70;;;13.70;99.90;;;;;;9186176;19;20019;-72
2022/07/02 01:41:42;;;;;;;5.85;3.70;;;13.80;99.90;;;;;;9186086;19;20018;-72
2022/07/02 01:44:48;;;;;;;5.55;3.58;;;13.80;99.90;;;;;;9185003;19;20052;-71
2022/07/02 01:47:53;;;;;;;5.47;4.35;;;13.80;99.90;;;;;;9189070;19;20022;-72
2022/07/02 01:50:57;;;;;;;7.65;3.72;;;13.70;99.90;;;;;;9186360;19;20014;-72
2022/07/02 01:54:03;;;;;;;5.72;3.45;;;13.70;99.90;;;;;;9185470;19;20070;-71
2022/07/02 01:57:08;;;;;;;5.80;3.65;;;13.70;99.90;;;;;;9185503;19;20355;-72
2022/07/02 02:00:14;;;;;;;4.28;3.50;;;13.80;99.90;;;;;;9182796;19;20020;-72
2022/07/02 02:03:18;;;;;;;8.70;3.73;;;13.70;99.90;;;;;;9186982;19;20014;-72
2022/07/02 02:06:22;;;;;;;9.27;3.88;;;13.70;99.90;;;;;;9189195;19;20018;-72
2022/07/02 02:09:29;;;;;;;6.75;3.70;;;13.70;99.90;;;;;;9185277;19;20458;-72
2022/07/02 02:12:32;;;;;;;5.68;3.63;;;13.60;99.90;;;;;;9185756;19;20014;-72
2022/07/02 02:15:36;;;;;;;5.65;3.50;;;13.50;99.90;;;;;;9185120;19;20014;-72
2022/07/02 02:18:40;;;;;;;6.55;3.40;;;13.40;99.90;;;;;;9183480;19;20020;-72
2022/07/02 02:21:44;;;;;;;7.10;3.53;;;13.30;99.90;;;;;;9188546;19;20018;-72
2022/07/02 02:24:51;;;;;;;7.22;3.47;;;13.40;99.90;;;;;;9181665;19;20011;-72
2022/07/02 02:27:55;;;;;;;6.70;3.80;;;13.50;99.90;;;;;;9183918;19;20051;-71
2022/07/02 02:30:59;;;;;;;4.97;3.47;;;13.50;99.90;;;;;;9185447;19;20014;-72
2022/07/02 02:34:03;;;;;;;8.27;3.50;;;13.40;99.90;;;;;;9183976;19;20021;-71
2022/07/02 02:37:07;;;;;;;7.35;4.00;;;13.40;99.90;;;;;;9185141;19;20010;-71
2022/07/02 02:40:13;;;;;;;6.13;3.90;;;13.50;99.90;;;;;;9182725;19;20018;-72
2022/07/02 02:43:17;;;;;;;7.70;4.20;;;13.50;99.90;;;;;;9183621;19;20018;-72
2022/07/02 02:46:22;;;;;;;8.52;4.00;;;13.50;99.90;;;;;;9181883;19;20019;-72
2022/07/02 02:49:26;;;;;;;6.22;3.80;;;13.50;99.90;;;;;;9183660;19;20030;-72
2022/07/02 02:52:30;;;;;;;11.77;4.22;;;13.30;99.90;;;;;;9183955;19;20483;-72
2022/07/02 02:55:37;;;;;;;6.68;3.70;;;13.30;99.90;;;;;;9186884;19;20082;-72
2022/07/02 02:58:40;;;;;;;8.25;3.60;;;13.20;99.90;;;;;;9182460;19;20019;-72
2022/07/02 03:01:47;;;;;;;5.65;3.75;;;13.30;99.90;;;;;;9185202;19;20048;-72
2022/07/02 03:04:51;;;;;;;6.72;3.75;;;13.40;99.90;;;;;;9186893;19;20349;-72
2022/07/02 03:07:55;;;;;;;6.28;3.70;;;;;;;;;;9182799;19;20014;-72
2022/07/02 03:11:02;;;;;;;7.63;3.90;;;13.40;99.90;;;;;;9183482;19;20050;-72
2022/07/02 03:14:06;;;;;;;5.22;3.60;;;13.50;99.90;;;;;;9182418;19;20010;-72
2022/07/02 03:17:10;;;;;;;6.03;3.97;;;13.50;99.90;;;;;;9182346;19;20416;-72
2022/07/02 03:20:15;;;;;;;6.85;3.90;;;13.40;99.90;;;;;;9180600;19;20018;-72
2022/07/02 03:23:19;;;;;;;5.97;3.47;;;13.40;99.90;;;;;;9180993;19;20018;-72
2022/07/02 03:26:25;;;;;;;8.90;3.97;;;13.40;99.90;;;;;;9181876;19;20034;-72
2022/07/02 03:29:29;;;;;;;8.25;4.32;;;13.40;99.90;;;;;;9185120;19;20029;-71
2022/07/02 03:32:33;;;;;;;6.07;3.67;;;13.20;99.90;;;;;;9183819;19;20446;-72
2022/07/02 03:35:37;;;;;;;9.35;3.72;;;13.30;99.90;;;;;;9181902;19;20034;-72
2022/07/02 03:38:41;;;;;;;6.22;3.67;;;13.40;99.90;;;;;;9180863;19;20013;-71
2022/07/02 03:41:48;;;;;;;8.57;3.90;;;13.20;99.90;;;;;;9181441;19;20094;-71
2022/07/02 03:44:52;;;;;;;8.40;4.00;;;13.30;99.90;;;;;;9180022;19;20025;-72
2022/07/02 03:47:56;;;;;;;8.13;3.83;;;13.20;99.90;;;;;;9184923;19;20038;-72
2022/07/02 03:51:00;;;;;;;9.38;4.00;;;13.30;99.90;;;;;;9179550;19;20483;-72
2022/07/02 03:54:04;;;;;;;7.40;4.38;;;13.20;99.90;;;;;;9180886;19;20018;-72
2022/07/02 03:57:11;;;;;;;7.15;3.88;;;13.10;99.90;;;;;;9180692;19;20044;-71
2022/07/02 04:00:15;;;;;;;8.27;3.97;;;13.30;99.90;;;;;;9181157;19;20026;-72
2022/07/02 04:03:19;;;;;;;7.43;4.35;;;13.10;99.90;;;;;;9181914;19;20023;-72
2022/07/02 04:06:23;;;;;;;10.18;4.10;;;13.00;99.90;;;;;;9183913;19;20011;-72
2022/07/02 04:09:27;;;;;;;10.57;4.40;;;13.00;99.90;;;;;;9179846;19;20534;-71
2022/07/02 04:12:34;;;;;;;8.38;4.05;;;13.10;99.90;;;;;;9180178;19;20074;-72
2022/07/02 04:15:38;;;;;;;7.25;4.57;;;13.00;99.90;;;;;;9179801;19;20018;-72
2022/07/02 04:18:41;;;;;;;8.00;4.22;;;12.90;99.90;;;;;;9179957;19;20019;-72
2022/07/02 04:21:45;;;;;;;9.00;4.78;;;12.90;99.90;;;;;;9179747;19;20088;-72
2022/07/02 04:24:49;;;;;;;8.75;5.07;;;12.90;99.90;;;;;;9177887;19;20424;-72
2022/07/02 04:27:56;;;;;;;7.40;4.45;;;12.90;99.90;;;;;;9179755;19;20483;-72
2022/07/02 04:31:00;;;;;;;10.38;4.60;;;;;;;;;;9181577;19;20029;-72
2022/07/02 04:34:04;;;;;;;7.32;4.22;;;13.20;99.90;;;;;;9180188;19;20018;-72
2022/07/02 04:37:08;;;;;;;8.18;4.40;;;13.20;99.90;;;;;;9181773;19;20018;-72
2022/07/02 04:40:12;;;;;;;7.45;4.75;;;13.30;99.90;;;;;;9178143;19;20018;-72
2022/07/02 04:43:19;;;;;;;6.97;4.85;;;13.40;99.90;;;;;;9179672;19;20014;-72
2022/07/02 04:46:23;;;;;;;8.63;4.63;;;;;;;;;;9180905;19;20045;-72
2022/07/02 04:49:27;;;;;;;10.40;4.57;;;13.50;99.90;;;;;;9179799;19;20034;-72
2022/07/02 04:52:32;;;;;;;8.32;4.68;;;13.70;99.90;;;;;;9179186;19;20527;-72
2022/07/02 04:55:35;;;;;;;6.57;4.57;;;13.70;99.90;;;;;;9183862;19;20018;-71
2022/07/02 04:58:42;;;;;;;8.77;4.90;;;13.70;99.90;;;;;;9178853;19;20021;-72
2022/07/02 05:01:46;;;;;;;6.22;5.10;;;13.60;99.90;;;;;;9175947;19;20015;-72
2022/07/02 05:04:50;;;;;;;8.32;5.15;;;13.70;99.90;;;;;;9177356;19;20018;-73
2022/07/02 05:07:53;;;;;;;9.85;5.47;;;13.50;99.90;;;;;;9178457;19;20022;-72
2022/07/02 05:10:58;;;;;;;9.57;5.35;;;13.60;99.90;;;;;;9180390;19;20015;-72
2022/07/02 05:14:05;;;;;;;7.65;6.13;;;13.50;99.90;;;;;;9178411;19;20438;-71
2022/07/02 05:17:09;;;;;;;7.97;5.53;;;13.70;99.90;;;;;;9177184;19;20082;-71
2022/07/02 05:20:13;;;;;;;10.50;6.10;;;13.60;99.90;;;;;;9176936;19;20042;-71
2022/07/02 05:23:17;;;;;;;10.63;6.07;;;13.50;99.90;;;;;;9176428;19;20014;-72
2022/07/02 05:26:21;;;;;;;11.07;6.57;;;13.70;99.90;;;;;;9177997;19;20483;-72
2022/07/02 05:29:28;;;;;;;8.75;6.55;;;13.70;99.90;;;;;;9182367;19;20508;-72
2022/07/02 05:32:32;;;;;;;11.75;6.32;;;13.30;99.90;;;;;;9177039;19;20086;-72
2022/07/02 05:35:36;;;;;;;10.63;6.78;;;13.60;99.90;;;;;;9177881;19;20007;-72
2022/07/02 05:38:40;;;;;;;12.48;6.80;;;13.70;99.90;;;;;;9176859;19;20034;-72
2022/07/02 05:41:45;;;;;;;10.32;6.35;;;13.70;99.90;;;;;;9174288;19;20032;-71
2022/07/02 05:44:51;;;;;;;10.77;7.10;;;13.80;99.90;;;;;;9178401;19;20006;-72
2022/07/02 05:47:55;;;;;;;10.00;6.22;;;13.70;99.90;;;;;;9175903;19;20360;-72
2022/07/02 05:50:59;;;;;;;9.48;6.63;;;13.50;99.90;;;;;;9176437;19;20550;-72
2022/07/02 05:54:04;;;;;;;8.52;6.10;;;13.80;99.90;;;;;;9176140;19;20019;-71
2022/07/02 05:57:08;;;;;;;10.48;6.38;;;14.00;99.90;;;;;;9176476;19;20413;-72
2022/07/02 06:00:16;;;;;;;10.40;5.88;;;14.00;99.90;;;;;;9174063;19;20040;-71
2022/07/02 06:03:20;;;;;;;12.98;6.05;;;14.00;99.90;;;;;;9181162;19;20014;-72
2022/07/02 06:09:40;;;;;;;6.63;5.57;;;14.30;99.90;;;;;;9175932;19;20061;-72
2022/07/02 06:12:44;;;;;;;10.32;6.10;;;14.10;99.90;;;;;;9176167;19;20010;-72
2022/07/02 06:15:50;;;;;;;9.52;5.30;;;14.20;99.90;;;;;;9179734;19;20011;-72
2022/07/02 06:18:54;;;;;;;7.20;5.32;;;14.00;99.90;;;;;;9186602;19;20007;-72
2022/07/02 06:21:59;;;;;;;10.75;5.32;;;;;;;;;;9181410;19;20356;-72
2022/07/02 06:25:03;;;;;;;7.70;5.68;;;14.40;99.90;;;;;;9181816;19;20014;-72
2022/07/02 06:28:07;;;;;;;6.20;4.57;;;14.40;99.90;;;;;;9186275;19;20017;-71
2022/07/02 06:31:13;;;;;;;7.32;4.97;;;14.50;99.90;;;;;;9184245;19;20696;-72
2022/07/02 06:34:17;;;;;;;8.60;4.95;;;14.50;99.90;;;;;;9184434;19;20007;-71
2022/07/02 06:37:21;;;;;;;8.75;4.45;;;14.60;99.90;;;;;;9189513;19;20483;-71
2022/07/02 06:40:25;;;;;;;6.32;3.45;;;14.50;99.90;;;;;;9182356;19;20376;-71
2022/07/02 06:43:29;;;;;;;7.63;3.63;;;14.70;99.90;;;;;;9184167;19;20017;-71
2022/07/02 06:46:36;;;;;;;5.97;3.80;;;14.50;99.90;;;;;;9185782;19;20398;-71
2022/07/02 06:49:40;;;;;;;;;;;14.80;99.90;;;;;;9185033;19;20018;-72
2022/07/02 06:52:45;;;;;;;6.30;3.35;;;14.70;99.90;;;;;;9185224;19;19915;-71
2022/07/02 06:55:50;;;;;;;6.70;2.80;;;15.00;99.90;;;;;;9183361;19;20051;-71
2022/07/02 06:58:54;;;;;;;5.65;2.70;;;14.90;99.90;;;;;;9182972;19;20014;-71
2022/07/02 07:02:01;;;;;;;8.30;2.85;;;14.90;99.90;;;;;;9182421;19;20345;-72
2022/07/02 07:05:05;;;;;;;6.13;2.75;;;15.00;99.90;;;;;;9186819;19;20026;-71
2022/07/02 07:08:09;;;;;;;5.55;2.63;;;15.20;99.90;;;;;;9182741;19;20425;-71
2022/07/02 07:11:13;;;;;;;4.57;2.40;;;15.10;99.90;;;;;;9186660;19;20366;-72
2022/07/02 07:14:17;;;;;;;6.97;2.40;;;15.20;99.90;;;;;;9182642;19;20487;-72
2022/07/02 07:17:24;;;;;;;6.78;2.28;;;15.20;99.90;;;;;;9181781;19;20356;-71
2022/07/02 07:20:29;;;;;;;4.63;2.10;;;15.10;99.90;;;;;;9181297;19;20011;-71
2022/07/02 07:23:33;;;;;;;3.78;1.80;;;15.50;99.90;;;;;;9180680;19;20014;-72
2022/07/02 07:26:37;;;;;;;4.10;2.13;;;15.40;99.90;;;;;;9181279;19;20015;-72
2022/07/02 07:29:42;;;;;;;4.38;2.13;;;15.50;99.90;;;;;;9182774;19;20006;-72
2022/07/02 07:32:48;;;;;;;3.60;1.70;;;15.50;99.90;;;;;;9182799;19;20074;-72
2022/07/02 07:35:52;;;;;;;4.18;1.98;;;15.50;99.90;;;;;;9181578;19;20051;-72
2022/07/02 07:38:56;;;;;;;2.38;1.50;;;15.60;99.90;;;;;;9182303;19;20019;-71
2022/07/02 07:42:01;;;;;;;2.83;1.50;;;15.60;99.90;;;;;;9179365;19;20359;-71
2022/07/02 07:45:05;;;;;;;3.47;1.42;;;15.50;99.90;;;;;;9184546;19;20018;-71
2022/07/02 07:48:11;;;;;;;4.40;1.45;;;15.50;99.90;;;;;;9180671;19;20015;-71
2022/07/02 07:51:15;;;;;;;3.80;1.50;;;16.20;99.90;;;;;;9181672;19;20018;-71
2022/07/02 07:54:19;;;;;;;3.47;1.45;;;15.80;99.90;;;;;;9180665;19;20014;-72
2022/07/02 07:57:24;;;;;;;3.80;1.40;;;15.90;99.90;;;;;;9180307;19;20390;-71
2022/07/02 08:00:27;;;;;;;4.30;1.30;;;16.00;99.90;;;;;;9180826;19;20094;-72
2022/07/02 08:03:34;;;;;;;3.85;1.10;;;15.80;99.90;;;;;;9182468;19;20010;-72
2022/07/02 08:06:38;;;;;;;1.67;1.33;;;15.90;99.90;;;;;;9184204;19;20018;-71
2022/07/02 08:09:42;;;;;;;2.97;1.45;;;16.10;99.90;;;;;;9180447;19;20078;-72
2022/07/02 08:12:46;;;;;;;2.60;1.20;;;16.10;99.90;;;;;;9180167;19;20011;-72
2022/07/02 08:15:50;;;;;;;3.20;1.10;;;16.30;99.90;;;;;;9179633;19;20018;-72
2022/07/02 08:18:56;;;;;;;4.40;1.33;;;16.30;99.90;;;;;;9183354;19;20011;-69
2022/07/02 08:22:00;;;;;;;2.95;1.33;;;16.60;99.90;;;;;;9177847;19;20365;-71
2022/07/02 08:25:05;;;;;;;6.53;1.77;;;16.50;99.90;;;;;;9178874;19;20061;-71
2022/07/02 08:28:09;;;;;;;2.65;1.20;;;16.50;99.90;;;;;;9179323;19;20099;-71
2022/07/02 08:31:13;;;;;;;5.40;1.52;;;16.70;99.90;;;;;;9179905;19;20074;-71
2022/07/02 08:34:20;;;;;;;2.17;1.33;;;16.50;99.90;;;;;;9178247;19;20395;-71
2022/07/02 08:37:24;;;;;;;2.33;1.10;;;16.50;99.90;;;;;;9177881;19;20018;-70
2022/07/02 08:40:29;;;;;;;2.83;1.38;;;16.70;99.90;;;;;;9178646;19;20011;-70
2022/07/02 08:43:34;;;;;;;2.70;1.17;;;16.60;99.90;;;;;;9180330;19;20018;-70
2022/07/02 08:46:41;;;;;;;2.85;1.20;;;16.70;99.90;;;;;;9176556;19;20382;-70
2022/07/02 08:49:49;;;;;;;2.25;1.17;;;16.70;99.90;;;;;;9177775;19;20018;-71
2022/07/02 08:52:53;;;;;;;1.80;1.10;;;16.80;99.90;;;;;;9182965;19;20516;-70
2022/07/02 08:55:58;;;;;;;1.73;0.95;;;16.90;99.90;;;;;;9180461;19;20081;-70
2022/07/02 08:59:03;;;;;;;2.05;0.80;;;17.00;99.90;;;;;;9178530;19;20006;-70
2022/07/02 09:02:10;;;;;;;2.35;1.00;;;17.00;99.30;;;;;;9175910;19;20077;-70
2022/07/02 09:05:19;;;;;;;1.58;0.90;;;17.20;99.40;;;;;;9183240;19;20010;-70
2022/07/02 09:08:24;;;;;;;3.67;1.02;;;17.30;99.30;;;;;;9178673;19;20011;-70
2022/07/02 09:11:31;;;;;;;3.47;1.20;;;17.10;99.90;;;;;;9177706;19;20010;-71
2022/07/02 09:14:36;;;;;;;2.70;1.00;;;17.50;99.70;;;;;;9178470;19;20047;-71
2022/07/02 09:17:42;;;;;;;2.47;1.23;;;17.40;97.80;;;;;;9177279;19;20359;-71
2022/07/02 09:20:48;;;;;;;3.80;0.95;;;17.40;98.10;;;;;;9176909;19;20062;-71
2022/07/02 09:23:52;;;;;;;5.03;1.02;;;17.50;97.70;;;;;;9177652;19;20341;-71
2022/07/02 09:27:02;;;;;;;4.03;1.05;;;17.50;97.70;;;;;;9181207;19;20039;-71
2022/07/02 09:30:07;;;;;;;3.65;0.90;;;17.60;98.30;;;;;;9176762;19;20019;-71
2022/07/02 09:33:31;;;;;;;2.45;0.95;;;17.70;97.40;;;;;;9177352;19;20007;-70
2022/07/02 09:36:40;;;;;;;1.67;0.73;;;17.70;95.60;;;;;;9176764;19;20021;-71
2022/07/02 09:39:44;;;;;;;1.02;0.68;;;17.70;95.20;;;;;;9176675;19;20054;-70
2022/07/02 09:42:50;;;;;;;2.78;0.82;;;17.90;95.40;;;;;;9175771;19;20018;-70
2022/07/02 09:45:54;;;;;;;3.28;0.82;;;18.00;94.40;;;;;;9175963;19;20047;-70
2022/07/02 09:49:09;;;;;;;3.03;0.82;;;18.00;95.50;;;;;;9176182;19;20014;-70
2022/07/02 09:52:16;;;;;;;4.53;0.88;;;18.10;94.70;;;;;;9185534;19;20011;-70
2022/07/02 09:55:25;;;;;;;2.88;0.90;;;18.20;94.70;;;;;;9189258;19;20010;-71
2022/07/02 09:58:30;;;;;;;2.35;0.90;;;18.30;94.60;;;;;;9184837;19;20052;-70
2022/07/02 10:01:44;;;;;;;2.15;0.90;;;18.50;94.40;;;;;;9188163;19;20085;-70
2022/07/02 10:04:48;;;;;;;3.00;0.88;;;18.40;94.20;;;;;;9187273;19;20348;-71
2022/07/02 10:07:56;;;;;;;1.40;0.70;;;18.60;92.40;;;;;;9185708;19;20363;-71
2022/07/02 10:11:00;;;;;;;3.28;0.90;;;18.80;92.60;;;;;;9184440;19;20007;-71
2022/07/02 10:14:05;;;;;;;3.28;1.20;;;18.70;93.30;;;;;;9184250;19;20518;-71
2022/07/02 10:17:11;;;;;;;2.20;0.82;;;18.70;92.20;;;;;;9187178;19;20024;-70
2022/07/02 10:20:16;;;;;;;2.25;1.20;;;18.80;92.00;;;;;;9185404;19;20017;-71
2022/07/02 10:23:23;;;;;;;2.83;0.80;;;18.90;92.70;;;;;;9181105;19;20158;-71
2022/07/02 10:26:28;;;;;;;2.35;0.60;;;19.10;93.10;;;;;;9183789;19;20020;-70
2022/07/02 10:29:32;;;;;;;1.65;0.70;;;19.20;92.80;;;;;;9184470;19;20014;-71
2022/07/02 10:32:43;;;;;;;2.65;0.90;;;19.50;92.20;;;;;;9183995;19;20077;-70
2022/07/02 10:35:50;;;;;;;2.75;0.80;;;19.50;92.20;;;;;;9183679;19;20088;-71
2022/07/02 10:39:06;;;;;;;2.50;0.80;;;19.60;91.60;;;;;;9183937;19;20013;-70
2022/07/02 10:42:10;;;;;;;4.85;1.17;;;19.50;89.10;;;;;;9182850;19;20007;-71
2022/07/02 10:45:17;;;;;;;2.28;0.90;;;19.40;90.10;;;;;;9182311;19;20018;-70
2022/07/02 10:48:21;;;;;;;2.25;0.80;;;19.30;89.10;;;;;;9183064;19;20015;-70
2022/07/02 10:51:26;;;;;;;2.88;0.75;;;19.10;90.40;;;;;;9186823;19;20017;-70
2022/07/02 10:54:36;;;;;;;2.33;0.73;;;19.50;91.40;;;;;;9187597;19;20030;-71
2022/07/02 10:57:44;;;;;;;2.25;1.00;;;19.60;91.20;;;;;;9183009;19;20044;-70
2022/07/02 11:00:48;;;;;;;2.63;0.90;;;19.70;91.00;;;;;;9179694;19;20066;-70
2022/07/02 11:04:02;;;;;;;1.40;0.80;;;19.70;90.80;;;;;;9185068;19;20124;-70
2022/07/02 11:07:07;;;;;;;1.55;0.75;;;20.10;90.80;;;;;;9187026;19;20015;-70
2022/07/02 11:10:14;;;;;;;1.88;0.85;;;19.90;90.50;;;;;;9182607;19;20015;-70
2022/07/02 11:13:18;;;;;;;3.35;1.08;;;19.90;88.60;;;;;;9182611;19;20037;-71
2022/07/02 11:16:26;;;;;;;4.22;1.10;;;20.00;90.20;;;;;;9182036;19;20015;-71
2022/07/02 11:19:31;;;;;;;2.25;1.00;;;20.00;90.00;;;;;;9182331;19;20010;-70
2022/07/02 11:22:35;;;;;;;1.67;0.70;;;20.30;88.40;;;;;;9181237;19;20123;-70
2022/07/02 11:25:42;;;;;;;2.05;1.10;;;20.10;88.60;;;;;;9185895;19;20007;-70
2022/07/02 11:28:46;;;;;;;2.28;1.10;;;20.10;87.80;;;;;;9181805;19;20014;-71
2022/07/02 11:31:52;;;;;;;2.15;1.10;;;20.20;89.20;;;;;;9181653;19;20025;-70
2022/07/02 11:35:02;;;;;;;2.17;1.10;;;20.10;89.30;;;;;;9181208;19;20487;-70
2022/07/02 11:38:06;;;;;;;2.00;0.90;;;20.20;90.10;;;;;;9181640;19;20044;-70
2022/07/02 11:41:24;;;;;;;3.20;1.10;;;20.00;89.90;;;;;;9180393;19;20042;-70
2022/07/02 11:44:31;;;;;;;2.72;1.10;;;19.90;90.00;;;;;;9186334;19;20412;-70
2022/07/02 11:47:34;;;;;;;1.52;0.98;;;20.10;90.60;;;;;;9178887;19;20078;-70
2022/07/02 11:50:39;;;;;;;2.10;1.05;;;19.90;90.00;;;;;;9180582;19;20011;-71
2022/07/02 11:53:43;;;;;;;2.45;1.17;;;19.90;89.60;;;;;;9185780;19;20014;-70
2022/07/02 11:56:51;;;;;;;2.97;1.10;;;19.70;90.40;;;;;;9180254;19;20018;-70
2022/07/02 11:59:55;;;;;;;3.17;1.10;;;20.10;90.90;;;;;;9184249;19;20007;-71
2022/07/02 12:02:59;;;;;;;2.30;0.93;;;20.50;90.30;;;;;;9177093;19;20034;-70
2022/07/02 12:06:04;;;;;;;2.65;1.00;;;20.60;87.70;;;;;;9185130;19;20014;-70
2022/07/02 12:09:10;;;;;;;1.35;0.90;;;20.70;88.30;;;;;;9179628;19;20014;-70
2022/07/02 12:12:17;;;;;;;2.30;1.02;;;20.70;86.20;;;;;;9178595;19;20011;-70
2022/07/02 12:15:21;;;;;;;5.65;1.60;;;20.70;87.40;;;;;;9180795;19;20353;-70
2022/07/02 12:18:24;;;;;;;2.90;1.45;;;20.80;87.10;;;;;;9178902;19;20010;-70
2022/07/02 12:21:37;;;;;;;2.65;1.10;;;21.00;88.60;;;;;;9181198;19;20029;-70
2022/07/02 12:24:40;;;;;;;1.50;1.00;;;20.80;85.80;;;;;;9177399;19;20010;-70
2022/07/02 12:27:54;;;;;;;2.83;0.95;;;20.80;87.60;;;;;;9179323;19;20015;-70
2022/07/02 12:30:56;;;;;;;3.05;1.33;;;20.90;88.60;;;;;;9177062;19;20011;-70
2022/07/02 12:34:00;;;;;;;2.17;0.90;;;21.10;84.90;;;;;;9183255;19;20460;-71
2022/07/02 12:37:03;;;;;;;1.92;0.90;;;21.30;86.50;;;;;;9178542;19;20035;-70
2022/07/02 12:40:10;;;;;;;2.13;0.90;;;21.50;83.20;;;;;;9178587;19;20472;-70
2022/07/02 12:43:24;;;;;;;3.53;1.20;;;21.40;83.50;;;;;;9177245;19;20007;-70
2022/07/02 12:46:28;;;;;;;2.40;1.02;;;21.10;83.40;;;;;;9177724;19;20021;-70
2022/07/02 12:49:32;;;;;;;3.10;1.13;;;21.20;83.40;;;;;;9180005;19;20044;-70
2022/07/02 12:52:46;;;;;;;2.63;1.00;;;21.00;83.30;;;;;;9179142;19;20018;-70
2022/07/02 12:55:55;;;;;;;5.40;1.15;;;21.40;82.40;;;;;;9178421;19;20010;-70
2022/07/02 12:59:02;;;;;;;2.25;1.10;;;21.40;82.70;;;;;;9178801;19;20018;-70
2022/07/02 13:02:07;;;;;;;6.05;1.92;;;21.70;83.20;;;;;;9177343;19;20015;-70
2022/07/02 13:05:11;;;;;;;4.25;2.17;;;21.60;83.30;;;;;;9177583;19;20511;-70
2022/07/02 13:08:17;;;;;;;3.13;1.15;;;21.70;84.80;;;;;;9182764;19;20560;-70
2022/07/02 13:11:22;;;;;;;3.88;1.40;;;22.10;84.70;;;;;;9177498;19;20081;-70
2022/07/02 13:14:29;;;;;;;3.58;1.50;;;22.20;82.60;;;;;;9177763;19;20006;-70
2022/07/02 13:17:33;;;;;;;4.75;1.40;;;22.50;81.60;;;;;;9176686;19;20015;-70
2022/07/02 13:20:37;;;;;;;3.05;1.40;;;22.30;83.40;;;;;;9180296;19;20303;-70
2022/07/02 13:23:41;;;;;;;2.45;1.33;;;22.10;83.10;;;;;;9176714;19;20516;-70
2022/07/02 13:26:45;;;;;;;2.97;1.60;;;21.80;82.50;;;;;;9186237;19;20134;-71
2022/07/02 13:29:52;;;;;;;2.03;1.10;;;22.00;84.00;;;;;;9186300;19;20021;-70
2022/07/02 13:32:55;;;;;;;2.50;1.30;;;22.20;83.30;;;;;;9187216;19;20040;-70
2022/07/02 13:35:59;;;;;;;3.53;1.58;;;21.90;84.20;;;;;;9187850;19;20070;-70
2022/07/02 13:39:04;;;;;;;3.47;1.42;;;21.90;84.20;;;;;;9186394;19;20094;-70
2022/07/02 13:42:08;;;;;;;3.88;1.33;;;21.70;85.60;;;;;;9187218;19;20128;-70
2022/07/02 13:45:15;;;;;;;3.63;1.50;;;21.90;86.50;;;;;;9185247;19;20045;-70
2022/07/02 13:48:19;;;;;;;3.72;1.20;;;21.90;85.60;;;;;;9185485;19;20018;-70
2022/07/02 13:51:23;;;;;;;2.70;1.20;;;22.10;83.00;;;;;;9186758;19;20495;-70
2022/07/02 13:54:28;;;;;;;3.22;1.23;;;22.40;82.20;;;;;;9184987;19;20019;-70
2022/07/02 13:57:32;;;;;;;2.60;1.50;;;22.60;80.20;;;;;;9186680;19;20040;-70
2022/07/02 14:00:39;;;;;;;3.33;1.20;;;23.20;80.40;;;;;;9186364;19;20052;-70
2022/07/02 14:03:44;;;;;;;3.95;1.35;;;23.60;78.30;;;;;;9181771;19;20010;-70
2022/07/02 14:06:48;;;;;;;3.08;1.10;;;24.00;80.80;;;;;;9184204;19;20028;-70
2022/07/02 14:09:53;;;;;;;3.95;1.42;;;24.40;78.70;;;;;;9184816;19;20021;-70
2022/07/02 14:12:57;;;;;;;3.63;1.58;;;24.70;75.60;;;;;;9185124;19;20026;-70
2022/07/02 14:16:04;;;;;;;3.63;1.67;;;24.80;73.30;;;;;;9189193;19;20014;-70
2022/07/02 14:19:08;;;;;;;2.08;1.00;;;24.60;73.40;;;;;;9186715;19;20050;-70
2022/07/02 14:22:14;;;;;;;2.67;1.30;;;24.40;73.60;;;;;;9188425;19;20082;-70
2022/07/02 14:25:18;;;;;;;3.40;1.58;;;24.10;74.70;;;;;;9184490;19;20479;-70
2022/07/02 14:28:22;;;;;;;2.10;1.10;;;23.80;73.40;;;;;;9184485;19;20011;-70
2022/07/02 14:31:29;;;;;;;3.03;1.38;;;23.40;75.00;;;;;;9185748;19;20040;-70
2022/07/02 14:34:33;;;;;;;3.67;1.30;;;23.30;77.60;;;;;;9183768;19;20098;-71
2022/07/02 14:37:37;;;;;;;2.95;1.20;;;23.30;79.30;;;;;;9182530;19;20010;-70
2022/07/02 14:40:41;;;;;;;3.13;1.27;;;23.20;78.50;;;;;;9185846;19;20015;-70
2022/07/02 14:43:45;;;;;;;2.85;1.80;;;25.00;80.50;;;;;;9180758;19;20081;-70
2022/07/02 14:46:52;;;;;;;5.47;1.65;;;23.70;79.70;;;;;;9180692;19;20086;-70
2022/07/02 14:49:56;;;;;;;;;;;23.60;78.50;;;;;;9187957;19;20030;-70
2022/07/02 14:53:00;;;;;;;3.50;1.17;;;23.40;77.20;;;;;;9183695;19;19930;-70
2022/07/02 14:56:04;;;;;;;5.38;1.63;;;23.20;78.10;;;;;;9182617;19;20086;-70
2022/07/02 14:59:11;;;;;;;3.95;1.30;;;23.40;81.10;;;;;;9182908;19;20066;-70
2022/07/02 15:02:17;;;;;;;2.50;1.40;;;23.70;80.30;;;;;;9182326;19;20025;-70
2022/07/02 15:05:21;;;;;;;3.00;1.95;;;23.50;79.40;;;;;;9183576;19;20034;-70
2022/07/02 15:08:25;;;;;;;8.30;4.18;;;23.60;78.80;;;;;;9182309;19;20376;-70
2022/07/02 15:11:31;;;;;;;5.13;2.10;;;23.60;77.40;;;;;;9180788;19;20021;-70
2022/07/02 15:17:53;;;;;;;2.80;1.20;;;23.40;76.80;;;;;;9181379;19;20402;-70
2022/07/02 15:20:59;;;;;;;3.65;1.10;;;23.20;77.90;;;;;;9187012;19;20018;-70
2022/07/02 15:24:10;;;;;;;3.65;1.25;;;23.20;78.10;;;;;;9183649;19;20006;-70
2022/07/02 15:27:16;;;;;;;3.40;1.30;;;23.00;78.30;;;;;;9181198;19;20010;-70
2022/07/02 15:30:30;;;;;;;3.33;1.50;;;22.70;78.00;;;;;;9181555;19;20467;-71
2022/07/02 15:33:37;;;;;;;3.78;1.30;;;22.50;79.50;;;;;;9180924;19;20032;-70
2022/07/02 15:36:41;;;;;;;4.45;1.83;;;22.60;80.20;;;;;;9182192;19;20011;-70
2022/07/02 15:39:47;;;;;;;3.65;1.50;;;22.90;79.60;;;;;;9182803;19;20014;-70
2022/07/02 15:42:52;;;;;;;2.83;1.40;;;23.50;79.60;;;;;;9179787;19;20011;-70
2022/07/02 15:45:57;;;;;;;3.53;1.50;;;23.30;77.00;;;;;;9180072;19;20017;-70
2022/07/02 15:49:06;;;;;;;3.15;1.23;;;23.20;76.90;;;;;;9181141;19;20367;-70
2022/07/02 15:52:19;;;;;;;2.50;1.27;;;23.40;76.00;;;;;;9180505;19;20331;-70
2022/07/02 15:55:28;;;;;;;3.25;1.40;;;23.30;77.40;;;;;;9180346;19;20010;-70
2022/07/02 15:58:38;;;;;;;2.80;1.33;;;23.20;76.80;;;;;;9185629;19;20483;-70
2022/07/02 16:01:43;;;;;;;4.78;2.53;;;23.10;76.20;;;;;;9180515;19;20091;-70
2022/07/02 16:04:53;;;;;;;4.43;1.60;;;23.10;76.70;;;;;;9177655;19;20011;-70
2022/07/02 16:07:58;;;;;;;2.92;1.73;;;23.10;77.40;;;;;;9180200;19;20025;-70
2022/07/02 16:11:02;;;;;;;3.08;1.63;;;23.00;77.20;;;;;;9179048;19;20033;-70
2022/07/02 16:14:08;;;;;;;3.85;1.92;;;23.00;79.20;;;;;;9181883;19;20011;-70